Portada
METAR-TAF:

METAR-TAF

Aeroports :

Bíldudalur, Islàndia

latitud: 65-38-30N, longitud: 23-32-45W, altitud: 8 m

Observació

L'informe es va fer fa 7 hores i 41 minuts, a les 16:00 UTC
Vent calma
Temperatura 1°C
Humitat 64%
Pressió 1012 hPa
Visibilitat 10 km o més
sense núvols per sota de 1500 mi sense presència de cumulonimbus.

METAR: BIBD 131600Z 00000KT CAVOK 01/M05 Q1012

Hora: 23:41 (23:41 UTC)

Pronòstic

L'informe es va fer fa 7 hores i 32 minuts, a les 16:09 UTC
Pronòstic vàlid del 13 a les 17 UTC al 14 a les 02 UTC
Vent 5 kt del Sud-Oest
Visibilitat 10 km o més
sense núvols per sota de 1500 mi sense presència de cumulonimbus.

TAF: BIBD 131609Z 1317/1402 22005KT CAVOK

Observacions i pronòstics meteorològics de més de 4000 aeroports (METAR i TAF).

Les estacions disponibles són els punts grocs i vermells al mapa.

Posi el ratolí al punt desitjat per veure el nom de l'estació.

Feu clic per veure les observacions i els pronòstics meteorològics.

Per canviar el mapa: feu clic els botons verds amb una creu de color negre per apropar; al botó verd amb un guió per allunyar la imatge; o en les fletxes verdes per a mapes adjacents.


METAR-TAF: